Time;durP1;ratioP1;P1;durP2;ratioP2;P2;SDS_P1;SDS_P2;PMS_P1;PMS_P2;Temp;Humidity;BMP_temperature;BMP_pressure;BME280_temperature;BME280_humidity;BME280_pressure;Samples;Min_cycle;Max_cycle;Signal;HPM_P1;HPM_P2
2022/10/31 00:01:37;;;;;;;16.40;2.55;;;;;;;11.92;100.00;99368.28;4992835;28;20072;-88
2022/10/31 00:04:07;;;;;;;17.02;2.20;;;;;;;11.94;100.00;99346.94;4961110;28;20044;-90
2022/10/31 00:06:37;;;;;;;15.27;2.00;;;;;;;11.96;100.00;99345.72;4970774;28;20042;-90
2022/10/31 00:09:09;;;;;;;13.93;2.55;;;;;;;12.01;100.00;99347.84;4982691;28;20053;-89
2022/10/31 00:11:39;;;;;;;15.27;2.10;;;;;;;11.99;100.00;99344.56;4993595;28;20175;-89
2022/10/31 00:14:08;;;;;;;16.50;2.70;;;;;;;12.01;100.00;99347.84;4992761;28;20037;-90
2022/10/31 00:16:36;;;;;;;13.38;2.47;;;;;;;12.01;100.00;99353.97;4980220;28;20154;-90
2022/10/31 00:19:06;;;;;;;18.63;2.22;;;;;;;12.10;100.00;99349.47;4998386;28;20030;-90
2022/10/31 00:21:35;;;;;;;20.17;2.75;;;;;;;12.14;100.00;99352.53;4971675;28;20041;-90
2022/10/31 00:24:06;;;;;;;20.50;2.80;;;;;;;12.11;100.00;99342.31;4975177;28;20045;-90
2022/10/31 00:26:36;;;;;;;22.52;3.08;;;;;;;12.14;100.00;99341.94;4968636;28;20580;-90
2022/10/31 00:29:05;;;;;;;16.63;2.50;;;;;;;12.16;100.00;99337.31;4983413;28;20497;-90
2022/10/31 00:31:33;;;;;;;16.17;2.67;;;;;;;12.13;100.00;99332.38;4978646;28;20065;-89
2022/10/31 00:34:02;;;;;;;16.08;2.53;;;;;;;12.14;100.00;99323.41;4992268;28;20034;-89
2022/10/31 00:36:30;;;;;;;14.23;2.65;;;;;;;12.05;100.00;99327.94;4974366;28;20069;-90
2022/10/31 00:39:00;;;;;;;15.90;2.67;;;;;;;12.07;100.00;99322.47;4997463;28;20539;-90
2022/10/31 00:41:28;;;;;;;21.10;2.65;;;;;;;12.07;100.00;99325.13;4964220;28;20038;-90
2022/10/31 00:43:58;;;;;;;18.13;2.55;;;;;;;12.12;100.00;99314.84;4971718;28;20042;-91
2022/10/31 00:46:28;;;;;;;20.00;2.85;;;;;;;12.12;100.00;99325.44;4963263;28;20037;-88
2022/10/31 00:48:58;;;;;;;17.98;2.72;;;;;;;12.15;100.00;99320.56;4998109;28;20474;-89
2022/10/31 00:51:28;;;;;;;22.40;2.85;;;;;;;12.16;100.00;99310.81;4996276;28;20053;-89
2022/10/31 00:53:57;;;;;;;21.58;3.58;;;;;;;12.20;100.00;99319.22;4961667;28;20048;-89
2022/10/31 00:56:26;;;;;;;22.85;3.33;;;;;;;12.24;100.00;99320.50;4978764;28;20038;-90
2022/10/31 00:58:54;;;;;;;23.45;3.33;;;;;;;12.27;100.00;99314.81;4973005;28;20671;-91
2022/10/31 01:01:24;;;;;;;34.70;4.05;;;;;;;12.31;100.00;99325.88;4990192;28;20046;-89
2022/10/31 01:03:54;;;;;;;23.67;2.80;;;;;;;12.32;100.00;99320.41;4962553;28;20042;-90
2022/10/31 01:06:23;;;;;;;19.35;3.13;;;;;;;12.33;100.00;99313.25;4994128;28;20037;-90
2022/10/31 01:08:53;;;;;;;20.23;3.42;;;;;;;12.36;100.00;99320.88;4993265;28;20042;-90
2022/10/31 01:11:23;;;;;;;23.25;2.92;;;;;;;12.39;100.00;99315.19;4981648;28;20048;-90
2022/10/31 01:13:53;;;;;;;22.58;3.55;;;;;;;12.36;100.00;99304.97;4977665;28;20084;-90
2022/10/31 01:16:24;;;;;;;18.83;2.47;;;;;;;12.36;100.00;99307.63;4980323;28;20089;-89
2022/10/31 01:18:53;;;;;;;20.63;3.17;;;;;;;12.33;100.00;99295.53;4968871;28;20126;-90
2022/10/31 01:21:25;;;;;;;18.27;3.35;;;;;;;12.36;100.00;99297.03;4992742;28;20042;-90
2022/10/31 01:23:55;;;;;;;19.58;2.85;;;;;;;12.36;100.00;99291.72;4987306;28;20026;-89
2022/10/31 01:26:27;;;;;;;26.48;3.45;;;;;;;12.37;100.00;99304.78;4965079;28;20042;-90
2022/10/31 01:28:58;;;;;;;31.90;3.25;;;;;;;12.39;100.00;99296.66;4976342;28;20034;-90
2022/10/31 01:31:31;;;;;;;24.67;2.78;;;;;;;12.44;100.00;99304.84;4976248;28;20050;-90
2022/10/31 01:34:01;;;;;;;18.25;2.85;;;;;;;12.46;100.00;99299.34;4954429;28;20038;-88
2022/10/31 01:36:33;;;;;;;23.02;3.47;;;;;;;12.47;100.00;99298.38;4979930;28;20034;-89
2022/10/31 01:39:12;;;;;;;19.95;2.63;;;;;;;12.48;100.00;99292.06;4964503;28;20507;-90
2022/10/31 01:41:47;;;;;;;15.05;2.63;;;;;;;12.50;100.00;99280.25;4960937;28;20383;-90
2022/10/31 01:44:16;;;;;;;16.42;2.45;;;;;;;12.53;100.00;99279.06;4979121;28;20402;-89
2022/10/31 01:46:49;;;;;;;22.20;2.67;;;;;;;12.49;100.00;99277.78;4997170;28;20055;-90
2022/10/31 01:49:24;;;;;;;17.50;2.60;;;;;;;12.49;100.00;99265.38;4977821;28;20042;-88
2022/10/31 01:52:49;;;;;;;18.67;2.63;;;;;;;12.47;100.00;99261.28;4987691;28;20502;-89
2022/10/31 01:55:29;;;;;;;15.70;2.67;;;;;;;12.50;100.00;99256.41;4933349;28;20184;-89
2022/10/31 01:58:05;;;;;;;18.08;3.05;;;;;;;12.48;100.00;99249.66;4939603;28;20070;-89
2022/10/31 02:00:35;;;;;;;19.52;2.83;;;;;;;12.42;100.00;99245.94;4954985;28;20046;-89
2022/10/31 02:03:04;;;;;;;14.63;1.73;;;;;;;12.42;100.00;99239.78;4977679;28;20037;-79
2022/10/31 02:05:33;;;;;;;18.83;2.25;;;;;;;12.41;100.00;99246.91;4999633;28;20034;-90
2022/10/31 02:08:17;;;;;;;16.10;2.35;;;;;;;12.42;100.00;99248.56;5019598;28;20034;-90
2022/10/31 02:10:50;;;;;;;17.02;3.03;;;;;;;12.41;100.00;99244.25;4961725;28;20042;-90
2022/10/31 02:13:21;;;;;;;13.30;1.90;;;;;;;12.51;100.00;99243.97;4978999;28;20045;-90
2022/10/31 02:15:57;;;;;;;14.60;2.45;;;;;;;12.52;100.00;99225.22;4980786;28;20041;-90
2022/10/31 02:18:29;;;;;;;17.95;2.40;;;;;;;12.56;100.00;99238.09;4961921;28;20544;-90
2022/10/31 02:21:31;;;;;;;16.08;2.58;;;;;;;12.57;100.00;99224.66;4979773;28;20044;-91
2022/10/31 02:24:34;;;;;;;11.98;1.95;;;;;;;12.51;100.00;99209.53;4987279;28;20030;-91
2022/10/31 02:27:22;;;;;;;14.18;2.03;;;;;;;12.50;100.00;99200.75;5009224;28;20121;-90
2022/10/31 02:30:13;;;;;;;20.75;2.90;;;;;;;12.48;100.00;99196.66;4964258;28;20042;-91
2022/10/31 02:32:52;;;;;;;13.00;2.42;;;;;;;12.41;100.00;99204.50;4975601;28;20525;-90
2022/10/31 02:35:38;;;;;;;16.65;1.92;;;;;;;12.45;100.00;99197.03;4978836;28;20413;-90
2022/10/31 02:38:26;;;;;;;12.90;1.85;;;;;;;12.40;100.00;99193.13;4977510;28;20098;-90
2022/10/31 02:41:15;;;;;;;17.30;2.05;;;;;;;12.37;100.00;99195.31;4974781;28;20490;-91
2022/10/31 02:44:20;;;;;;;16.27;1.95;;;;;;;12.39;100.00;99209.19;4995951;28;20044;-91
2022/10/31 02:47:01;;;;;;;17.27;2.83;;;;;;;12.38;100.00;99202.25;4960111;28;20041;-89
2022/10/31 02:49:43;;;;;;;17.80;2.20;;;;;;;12.39;100.00;99191.44;4966038;28;20042;-91
2022/10/31 02:52:32;;;;;;;22.85;2.97;;;;;;;12.36;100.00;99202.44;4978352;28;20046;-90
2022/10/31 02:55:24;;;;;;;15.32;2.15;;;;;;;12.31;100.00;99198.72;4962920;28;20034;-90
2022/10/31 02:58:15;;;;;;;17.50;2.42;;;;;;;12.27;100.00;99185.00;4987026;28;20511;-89
2022/10/31 03:01:27;;;;;;;16.67;2.20;;;;;;;12.25;100.00;99192.31;4972103;28;21080;-91
2022/10/31 03:04:13;;;;;;;13.80;2.00;;;;;;;12.24;100.00;99198.63;4952796;28;20061;-90
2022/10/31 03:06:54;;;;;;;19.77;2.92;;;;;;;12.21;100.00;99202.47;4977064;28;20085;-90
2022/10/31 03:09:34;;;;;;;17.30;2.30;;;;;;;12.21;100.00;99209.59;4961565;28;20041;-89
2022/10/31 03:12:36;;;;;;;15.52;2.15;;;;;;;12.22;100.00;99209.41;4964232;28;20029;-90
2022/10/31 03:15:05;;;;;;;20.90;2.88;;;;;;;12.23;100.00;99207.59;4939222;28;20057;-90
2022/10/31 03:17:40;;;;;;;17.73;2.50;;;;;;;12.26;100.00;99201.91;4978239;28;20065;-90
2022/10/31 03:20:11;;;;;;;20.35;2.85;;;;;;;12.26;100.00;99208.03;4974108;28;20048;-92
2022/10/31 03:22:43;;;;;;;17.83;2.63;;;;;;;12.27;100.00;99204.38;4970586;28;20034;-92
2022/10/31 03:25:14;;;;;;;19.25;2.53;;;;;;;12.26;100.00;99202.72;4978426;28;20574;-90
2022/10/31 03:27:46;;;;;;;22.92;2.60;;;;;;;12.27;100.00;99204.38;4979846;28;20513;-92
2022/10/31 03:30:16;;;;;;;20.35;2.22;;;;;;;12.26;100.00;99201.91;4964463;28;20038;-92
2022/10/31 03:32:58;;;;;;;22.70;3.00;;;;;;;12.27;100.00;99212.31;4963632;28;20371;-92
2022/10/31 03:35:29;;;;;;;22.13;2.78;;;;;;;12.30;100.00;99202.34;4979017;28;20045;-92
2022/10/31 03:38:01;;;;;;;18.73;2.58;;;;;;;12.30;100.00;99202.34;4976683;28;20042;-92
2022/10/31 03:40:32;;;;;;;19.45;3.05;;;;;;;12.31;100.00;99207.47;4961045;28;20042;-91
2022/10/31 03:43:07;;;;;;;21.90;3.08;;;;;;;12.32;100.00;99205.63;4973055;28;20034;-90
2022/10/31 03:45:45;;;;;;;21.67;2.60;;;;;;;12.34;100.00;99198.34;4974333;28;20033;-91
2022/10/31 03:48:16;;;;;;;24.42;3.08;;;;;;;12.37;100.00;99196.13;5007847;28;20079;-91
2022/10/31 03:50:52;;;;;;;26.38;3.03;;;;;;;12.40;100.00;99189.63;4981683;28;20030;-92
2022/10/31 03:53:45;;;;;;;16.98;2.80;;;;;;;12.45;100.00;99199.66;4999813;28;20056;-92
2022/10/31 03:56:29;;;;;;;23.55;2.90;;;;;;;12.46;100.00;99194.19;5011501;28;20048;-92
2022/10/31 03:59:03;;;;;;;21.88;3.35;;;;;;;12.45;100.00;99189.06;5008887;28;20072;-92
2022/10/31 04:01:36;;;;;;;27.70;3.97;;;;;;;12.47;100.00;99195.00;4984090;28;20533;-92
2022/10/31 04:04:06;;;;;;;18.17;2.65;;;;;;;12.48;100.00;99186.88;5008446;28;20047;-91
2022/10/31 04:06:38;;;;;;;26.48;3.28;;;;;;;12.51;100.00;99183.84;4997379;28;20035;-91
2022/10/31 04:09:09;;;;;;;23.02;2.80;;;;;;;12.53;100.00;99176.50;4974755;28;20037;-91
2022/10/31 04:11:43;;;;;;;22.92;3.10;;;;;;;12.58;100.00;99170.63;5020057;28;20044;-91
2022/10/31 04:14:48;;;;;;;19.88;3.03;;;;;;;12.57;100.00;99170.81;4990862;28;20064;-91
2022/10/31 04:17:19;;;;;;;26.48;3.08;;;;;;;12.60;100.00;99173.94;4978902;28;20041;-91
2022/10/31 04:19:49;;;;;;;25.40;2.80;;;;;;;12.61;100.00;99174.75;5027825;28;20034;-91
2022/10/31 04:22:18;;;;;;;19.98;2.88;;;;;;;12.57;100.00;99165.53;4992299;28;20026;-91
2022/10/31 04:24:46;;;;;;;28.65;3.78;;;;;;;12.63;100.00;99168.25;5014557;28;20034;-91
2022/10/31 04:27:16;;;;;;;21.55;2.88;;;;;;;12.64;100.00;99161.13;4981093;28;20030;-91
2022/10/31 04:29:44;;;;;;;28.50;3.00;;;;;;;12.65;100.00;99160.94;4977914;28;20438;-92
2022/10/31 04:32:13;;;;;;;13.27;2.20;;;;;;;12.67;100.00;99154.63;5001479;28;20436;-92
2022/10/31 04:34:41;;;;;;;20.08;2.53;;;;;;;12.72;100.00;99150.41;5008003;28;20073;-92
2022/10/31 04:37:09;;;;;;;22.35;3.47;;;;;;;12.74;100.00;99152.84;4978434;28;20509;-92
2022/10/31 04:39:38;;;;;;;23.38;2.83;;;;;;;12.76;100.00;99154.28;4983025;28;20041;-92
2022/10/31 04:42:32;;;;;;;21.58;3.20;;;;;;;12.77;100.00;99150.63;4983115;28;20054;-91
2022/10/31 04:45:04;;;;;;;25.25;3.05;;;;;;;12.77;100.00;99144.53;4982858;28;20046;-92
2022/10/31 04:47:34;;;;;;;22.75;2.80;;;;;;;12.78;100.00;99143.50;4992013;28;20492;-92
2022/10/31 04:50:04;;;;;;;13.48;2.03;;;;;;;12.77;100.00;99128.63;4984268;28;20057;-93
2022/10/31 04:52:41;;;;;;;17.77;2.10;;;;;;;12.81;100.00;99139.63;4995849;28;20141;-92
2022/10/31 04:55:14;;;;;;;17.90;2.13;;;;;;;12.77;100.00;99132.06;4974131;28;20092;-92
2022/10/31 04:58:02;;;;;;;30.15;3.47;;;;;;;12.78;100.00;99132.91;4992699;28;20490;-93
2022/10/31 05:00:30;;;;;;;23.67;3.08;;;;;;;12.77;100.00;99136.56;4972501;28;20062;-92
2022/10/31 05:03:00;;;;;;;23.42;3.08;;;;;;;12.78;100.00;99130.25;4980161;28;20082;-92
2022/10/31 05:05:31;;;;;;;22.45;4.13;;;;;;;12.77;100.00;99137.38;4957036;28;20041;-92
2022/10/31 05:08:01;;;;;;;22.40;3.03;;;;;;;12.76;100.00;99137.56;4979031;28;20022;-92
2022/10/31 05:10:31;;;;;;;22.83;3.38;;;;;;;12.77;100.00;99136.56;4976403;28;20042;-92
2022/10/31 05:13:02;;;;;;;20.55;2.50;;;;;;;12.77;100.00;99134.72;4963924;28;20036;-91
2022/10/31 05:16:03;;;;;;;23.08;3.15;;;;;;;12.71;100.00;99132.03;4942032;28;20097;-92
2022/10/31 05:19:03;;;;;;;16.20;2.58;;;;;;;12.72;100.00;99117.75;4986969;28;20153;-91
2022/10/31 05:22:01;;;;;;;26.90;4.75;;;;;;;12.71;100.00;99116.13;4941026;28;20922;-92
2022/10/31 05:24:29;;;;;;;15.23;2.55;;;;;;;12.72;100.00;99123.88;4966518;28;20394;-91
2022/10/31 05:26:59;;;;;;;15.23;2.70;;;;;;;12.69;100.00;99118.97;4963889;28;20065;-92
2022/10/31 05:29:26;;;;;;;17.27;2.63;;;;;;;12.73;100.00;99128.16;4962763;28;20124;-91
2022/10/31 05:31:54;;;;;;;16.85;2.63;;;;;;;12.68;100.00;99132.41;4981542;28;20034;-91
2022/10/31 05:34:42;;;;;;;17.35;2.53;;;;;;;12.72;100.00;99121.22;4979592;28;20057;-92
2022/10/31 05:37:29;;;;;;;12.50;1.85;;;;;;;12.74;100.00;99129.00;4979824;28;20060;-91
2022/10/31 05:39:57;;;;;;;12.48;1.50;;;;;;;12.79;100.00;99115.97;4996781;28;20034;-92
2022/10/31 05:42:26;;;;;;;13.30;1.88;;;;;;;12.78;100.00;99111.69;4964452;28;20390;-91
2022/10/31 05:44:52;;;;;;;14.65;2.15;;;;;;;12.81;100.00;99116.59;4965785;28;20037;-91
2022/10/31 05:47:32;;;;;;;9.23;1.33;;;;;;;12.76;100.00;99126.97;4962093;28;20030;-91
2022/10/31 05:50:19;;;;;;;10.43;2.13;;;;;;;12.77;100.00;99115.34;4999296;28;20645;-91
2022/10/31 05:53:02;;;;;;;17.45;2.33;;;;;;;12.80;100.00;99114.97;5011185;28;20049;-92
2022/10/31 05:55:35;;;;;;;16.67;3.67;;;;;;;12.81;100.00;99119.25;5004636;28;20065;-92
2022/10/31 05:58:08;;;;;;;17.40;2.92;;;;;;;12.78;100.00;99099.25;5018449;28;20695;-92
2022/10/31 06:00:38;;;;;;;17.20;2.15;;;;;;;12.83;100.00;99109.28;5008905;28;20045;-92
2022/10/31 06:03:10;;;;;;;19.50;2.33;;;;;;;12.84;100.00;99113.56;5001857;28;20099;-92
2022/10/31 06:05:59;;;;;;;17.50;2.33;;;;;;;12.86;100.00;99108.91;5027476;28;20124;-90
2022/10/31 06:08:33;;;;;;;21.17;2.72;;;;;;;12.84;100.00;99092.34;5007287;28;20043;-91
2022/10/31 06:11:06;;;;;;;15.65;2.13;;;;;;;12.88;100.00;99084.84;5000337;28;20034;-91
2022/10/31 06:13:52;;;;;;;21.73;3.17;;;;;;;12.87;100.00;99093.78;5011597;28;20838;-91
2022/10/31 06:16:30;;;;;;;22.90;3.15;;;;;;;12.91;100.00;99100.38;5009911;28;20045;-91
2022/10/31 06:19:07;;;;;;;25.85;3.03;;;;;;;12.87;100.00;99096.44;4983240;28;20505;-91
2022/10/31 06:21:37;;;;;;;26.92;3.10;;;;;;;12.86;100.00;99092.16;5021524;28;20069;-90
2022/10/31 06:24:07;;;;;;;23.38;3.15;;;;;;;12.87;100.00;99091.13;5005286;28;20053;-91
2022/10/31 06:26:59;;;;;;;20.35;3.35;;;;;;;12.89;100.00;99105.03;4982339;28;20041;-91
2022/10/31 06:29:26;;;;;;;16.17;3.22;;;;;;;12.89;100.00;99086.47;4980850;28;20060;-92
2022/10/31 06:32:12;;;;;;;25.95;3.28;;;;;;;12.95;100.00;99108.75;4999483;28;20051;-91
2022/10/31 06:34:43;;;;;;;22.10;3.10;;;;;;;12.93;100.00;99114.25;5002280;28;20037;-90
2022/10/31 06:37:14;;;;;;;20.27;3.08;;;;;;;12.95;100.00;99114.88;4985255;28;20033;-91
2022/10/31 06:39:46;;;;;;;28.55;3.67;;;;;;;12.95;100.00;99108.75;4994536;28;20042;-91
2022/10/31 06:42:17;;;;;;;24.35;3.78;;;;;;;12.96;100.00;99110.38;5004296;28;20544;-90
2022/10/31 06:44:45;;;;;;;23.40;3.22;;;;;;;12.98;100.00;99124.28;4985410;28;20034;-89
2022/10/31 06:47:51;;;;;;;21.67;2.92;;;;;;;13.00;100.00;99124.91;4953367;28;20077;-89
2022/10/31 06:50:26;;;;;;;21.40;2.80;;;;;;;13.02;100.00;99121.06;4986865;28;20115;-91
2022/10/31 06:52:59;;;;;;;26.80;2.97;;;;;;;13.06;100.00;99132.06;4991916;28;20074;-90
2022/10/31 06:55:29;;;;;;;21.30;2.63;;;;;;;13.08;100.00;99121.28;5001211;28;20118;-91
2022/10/31 06:58:00;;;;;;;17.05;2.58;;;;;;;13.07;100.00;99115.16;5004756;28;20065;-90
2022/10/31 07:00:30;;;;;;;23.67;3.22;;;;;;;13.02;100.00;99126.34;4958191;28;20034;-91
2022/10/31 07:03:12;;;;;;;26.13;3.45;;;;;;;13.02;100.00;99128.19;4963525;28;20036;-91
2022/10/31 07:05:41;;;;;;;23.45;2.80;;;;;;;12.99;100.00;99118.78;5011261;28;20045;-91
2022/10/31 07:08:11;;;;;;;14.32;2.78;;;;;;;12.97;100.00;99119.97;4975170;28;20496;-91
2022/10/31 07:10:42;;;;;;;24.75;3.53;;;;;;;13.00;100.00;99116.94;4963220;28;20549;-91
2022/10/31 07:13:14;;;;;;;18.73;2.38;;;;;;;13.00;100.00;99101.03;4980365;28;20111;-91
2022/10/31 07:15:49;;;;;;;23.23;2.80;;;;;;;12.97;100.00;99112.84;4979319;28;20191;-90
2022/10/31 07:18:19;;;;;;;16.70;2.47;;;;;;;12.96;100.00;99108.56;4979925;28;20065;-90
2022/10/31 07:20:48;;;;;;;17.20;2.60;;;;;;;12.97;100.00;99102.25;4963036;28;20041;-92
2022/10/31 07:23:19;;;;;;;16.08;2.38;;;;;;;12.98;100.00;99095.13;4984173;28;20034;-91
2022/10/31 07:26:00;;;;;;;17.70;2.72;;;;;;;12.97;100.00;99093.44;4965047;28;20173;-91
2022/10/31 07:28:39;;;;;;;17.27;2.67;;;;;;;12.96;100.00;99108.56;4974225;28;20714;-92
2022/10/31 07:31:08;;;;;;;17.13;2.88;;;;;;;12.93;100.00;99106.31;4979418;28;20038;-91
2022/10/31 07:33:38;;;;;;;23.65;3.08;;;;;;;12.94;100.00;99107.09;4977636;28;20041;-91
2022/10/31 07:36:41;;;;;;;16.85;2.28;;;;;;;12.92;100.00;99109.94;4960174;28;21919;-91
2022/10/31 07:39:11;;;;;;;11.75;2.20;;;;;;;12.96;100.00;99110.38;4970140;28;20041;-90
2022/10/31 07:41:41;;;;;;;15.75;2.60;;;;;;;12.97;100.00;99110.19;4977807;28;20076;-92
2022/10/31 07:44:10;;;;;;;18.00;2.28;;;;;;;12.97;100.00;99110.19;4975763;28;20386;-91
2022/10/31 07:47:16;;;;;;;17.50;2.42;;;;;;;12.95;100.00;99119.38;4936387;29;20027;-92
2022/10/31 07:50:04;;;;;;;20.45;2.70;;;;;;;12.96;100.00;99121.84;4954221;28;20039;-91
2022/10/31 07:53:14;;;;;;;15.50;3.03;;;;;;;12.95;100.00;99117.53;4904324;29;20122;-91
2022/10/31 07:55:51;;;;;;;24.55;3.03;;;;;;;12.92;100.00;99128.50;4902670;29;20032;-92
2022/10/31 07:58:19;;;;;;;16.00;2.40;;;;;;;12.92;100.00;99125.03;4935741;28;20049;-91
2022/10/31 08:00:48;;;;;;;15.02;3.03;;;;;;;12.90;100.00;99127.88;4990908;28;20036;-91
2022/10/31 08:03:26;;;;;;;11.77;2.45;;;;;;;12.89;100.00;99127.06;5009569;28;20347;-91
2022/10/31 08:06:15;;;;;;;15.63;2.30;;;;;;;12.90;100.00;99120.75;4991016;28;20080;-89
2022/10/31 08:09:07;;;;;;;12.45;2.08;;;;;;;12.97;100.00;99126.13;4988642;28;20088;-91
2022/10/31 08:11:35;;;;;;;14.77;2.00;;;;;;;12.98;100.00;99126.94;4974789;28;20030;-91
2022/10/31 08:14:03;;;;;;;14.48;2.13;;;;;;;13.00;100.00;99138.16;4974671;28;20100;-91
2022/10/31 08:16:31;;;;;;;19.42;2.80;;;;;;;13.02;100.00;99112.28;4951866;28;20327;-91
2022/10/31 08:19:03;;;;;;;15.57;2.20;;;;;;;13.06;100.00;99128.63;4986188;28;20069;-91
2022/10/31 08:21:36;;;;;;;17.10;2.22;;;;;;;13.06;100.00;99125.97;4992585;28;20092;-92
2022/10/31 08:24:07;;;;;;;20.50;2.58;;;;;;;13.07;100.00;99133.75;4956341;28;20037;-92
2022/10/31 08:26:37;;;;;;;17.50;2.40;;;;;;;13.09;100.00;99123.72;4991307;28;20047;-91
2022/10/31 08:29:09;;;;;;;23.63;3.13;;;;;;;13.11;100.00;99134.16;4975287;28;20045;-92
2022/10/31 08:31:38;;;;;;;22.30;4.03;;;;;;;13.11;100.00;99147.41;4976697;28;20088;-91
2022/10/31 08:34:26;;;;;;;18.60;2.50;;;;;;;13.15;100.00;99146.03;4987688;28;20041;-91
2022/10/31 08:37:12;;;;;;;16.20;2.88;;;;;;;13.13;100.00;99145.41;4986496;28;20038;-91
2022/10/31 08:39:46;;;;;;;22.52;2.65;;;;;;;13.14;100.00;99154.97;4959246;28;20042;-90
2022/10/31 08:42:14;;;;;;;22.40;2.97;;;;;;;13.15;100.00;99151.34;4987818;28;20062;-92
2022/10/31 08:44:42;;;;;;;21.08;2.83;;;;;;;13.18;100.00;99156.25;4976929;28;20132;-92
2022/10/31 08:47:10;;;;;;;21.85;3.03;;;;;;;13.17;100.00;99151.94;4975083;28;20033;-91
2022/10/31 08:49:39;;;;;;;22.48;3.47;;;;;;;13.17;100.00;99153.78;4985179;28;20046;-91
2022/10/31 08:52:07;;;;;;;26.20;4.18;;;;;;;13.13;100.00;99158.66;4971304;28;20052;-91
2022/10/31 08:54:39;;;;;;;23.65;3.10;;;;;;;13.12;100.00;99162.34;4960494;28;20046;-91
2022/10/31 08:57:27;;;;;;;19.90;3.55;;;;;;;13.13;100.00;99163.97;4965359;28;20209;-92
2022/10/31 08:59:57;;;;;;;31.27;3.83;;;;;;;13.19;100.00;99149.09;4958993;28;20038;-92
2022/10/31 09:02:46;;;;;;;20.10;2.72;;;;;;;13.19;100.00;99165.84;4974925;28;20038;-91
2022/10/31 09:05:14;;;;;;;18.27;2.35;;;;;;;13.15;100.00;99160.09;4973963;28;20034;-92
2022/10/31 09:07:43;;;;;;;16.63;2.80;;;;;;;13.20;100.00;99162.19;4958662;28;20038;-91
2022/10/31 09:10:11;;;;;;;14.68;2.13;;;;;;;13.19;100.00;99160.53;4973828;28;20125;-92
2022/10/31 09:12:41;;;;;;;20.95;3.35;;;;;;;13.20;100.00;99164.03;4972479;28;20069;-90
2022/10/31 09:15:09;;;;;;;15.68;2.83;;;;;;;13.21;100.00;99165.66;4983727;28;20069;-92
2022/10/31 09:17:52;;;;;;;17.23;2.63;;;;;;;13.24;100.00;99168.75;4959860;28;20102;-91
2022/10/31 09:20:33;;;;;;;14.07;2.25;;;;;;;13.23;100.00;99167.13;4968988;28;20066;-90
2022/10/31 09:23:14;;;;;;;13.20;1.85;;;;;;;13.23;100.00;99163.63;4974150;28;20043;-92
2022/10/31 09:25:45;;;;;;;18.38;2.42;;;;;;;13.26;100.00;99168.56;4971243;28;20030;-93
2022/10/31 09:28:33;;;;;;;10.85;1.80;;;;;;;13.23;100.00;99172.41;4992875;28;20037;-92
2022/10/31 09:31:06;;;;;;;11.68;1.63;;;;;;;13.23;100.00;99175.06;4988094;28;20125;-91
2022/10/31 09:34:04;;;;;;;9.75;1.17;;;;;;;13.26;100.00;99190.59;4970658;28;20033;-92
2022/10/31 09:36:39;;;;;;;5.63;1.20;;;;;;;13.28;100.00;99190.41;4990732;28;20656;-90
2022/10/31 09:39:15;;;;;;;7.85;1.23;;;;;;;13.25;100.00;99177.53;4990544;28;20037;-90
2022/10/31 09:41:50;;;;;;;7.63;1.20;;;;;;;13.18;100.00;99179.31;4977141;28;20033;-90
2022/10/31 09:44:56;;;;;;;9.50;1.40;;;;;;;13.11;100.00;99180.06;4963988;28;20050;-91
2022/10/31 09:47:58;;;;;;;8.70;1.65;;;;;;;13.10;100.00;99189.06;4980737;28;20038;-91
2022/10/31 09:50:49;;;;;;;7.78;1.35;;;;;;;13.05;100.00;99185.31;5009292;28;20029;-91
2022/10/31 09:54:11;;;;;;;9.25;1.17;;;;;;;12.98;100.00;99178.13;4991401;28;20557;-89
2022/10/31 09:56:39;;;;;;;9.07;1.33;;;;;;;13.02;100.00;99183.88;4997263;28;20045;-91
2022/10/31 09:59:21;;;;;;;6.70;1.08;;;;;;;13.00;100.00;99189.38;4978754;28;20031;-90
2022/10/31 10:01:59;;;;;;;8.88;0.93;;;;;;;12.96;100.00;99193.44;4984271;28;20487;-89
2022/10/31 10:04:46;;;;;;;5.10;1.17;;;;;;;12.96;100.00;99197.91;4982364;28;20266;-90
2022/10/31 10:07:47;;;;;;;4.10;0.82;;;;;;;12.92;100.00;99186.03;4987702;28;20080;-90
2022/10/31 10:10:46;;;;;;;6.43;1.00;;;;;;;12.95;100.00;99191.78;4962265;28;20549;-91
2022/10/31 10:13:41;;;;;;;5.13;0.98;;;;;;;12.94;100.00;99191.97;4975637;28;20042;-89
2022/10/31 10:16:21;;;;;;;5.07;0.80;;;;;;;12.97;100.00;99178.31;4974463;28;20088;-92
2022/10/31 10:19:07;;;;;;;5.70;1.10;;;;;;;12.94;100.00;99178.72;4949282;28;20054;-89
2022/10/31 10:21:48;;;;;;;8.32;1.42;;;;;;;12.97;100.00;99167.72;4931562;28;20047;-90
2022/10/31 10:24:40;;;;;;;13.23;1.30;;;;;;;12.96;100.00;99166.91;4936748;23;20058;-90
2022/10/31 10:27:14;;;;;;;9.65;1.17;;;;;;;12.99;100.00;99169.19;4952603;28;20067;-90
2022/10/31 10:29:58;;;;;;;8.68;0.90;;;;;;;13.00;100.00;99168.16;4902558;29;20043;-88
2022/10/31 10:32:30;;;;;;;8.75;2.03;;;;;;;13.05;100.00;99172.06;4939423;29;20075;-89
2022/10/31 10:35:23;;;;;;;5.50;1.10;;;;;;;13.08;100.00;99188.41;4927694;29;20031;-92
2022/10/31 10:38:01;;;;;;;5.25;0.70;;;;;;;13.06;100.00;99193.09;4905631;29;20902;-90
2022/10/31 10:40:31;;;;;;;10.10;1.40;;;;;;;13.05;100.00;99187.97;4949077;29;20035;-89
2022/10/31 10:43:30;;;;;;;10.43;1.20;;;;;;;13.03;100.00;99191.66;4920773;29;20146;-89
2022/10/31 10:49:51;;;;;;;5.75;1.25;;;;;;;12.91;100.00;99182.56;4907408;29;20044;-93
2022/10/31 10:52:27;;;;;;;5.38;1.08;;;;;;;12.96;100.00;99180.19;4916509;29;20042;-91
2022/10/31 10:55:09;;;;;;;8.13;0.80;;;;;;;12.93;100.00;99190.34;4947344;28;20043;-92
2022/10/31 10:58:02;;;;;;;8.80;0.90;;;;;;;12.92;100.00;99199.28;4932358;29;20043;-92
2022/10/31 11:00:42;;;;;;;3.25;0.50;;;;;;;12.88;100.00;99209.47;4903934;29;20035;-91
2022/10/31 11:03:11;;;;;;;4.30;0.90;;;;;;;12.80;100.00;99209.59;4919110;29;20060;-88
2022/10/31 11:05:58;;;;;;;4.43;0.50;;;;;;;12.78;100.00;99202.66;4903661;29;20043;-90
2022/10/31 11:08:32;;;;;;;6.82;0.98;;;;;;;12.76;100.00;99202.03;4920712;29;20346;-88
2022/10/31 11:11:04;;;;;;;3.75;0.45;;;;;;;12.75;100.00;99187.13;4920802;29;20035;-89
2022/10/31 11:13:36;;;;;;;5.75;0.52;;;;;;;12.72;100.00;99179.56;4913572;29;20043;-88
2022/10/31 11:16:08;;;;;;;6.75;0.70;;;;;;;12.69;100.00;99177.28;4933548;29;20035;-88
2022/10/31 11:18:42;;;;;;;3.75;0.93;;;;;;;12.70;100.00;99170.13;4934817;29;20135;-93
2022/10/31 11:21:26;;;;;;;5.93;0.93;;;;;;;12.66;100.00;99164.41;4937565;29;20118;-89
2022/10/31 11:24:11;;;;;;;5.53;0.88;;;;;;;12.63;100.00;99164.78;4944754;29;20130;-88
2022/10/31 11:26:43;;;;;;;5.97;0.70;;;;;;;12.68;100.00;99169.53;4933683;29;20031;-90
2022/10/31 11:29:26;;;;;;;6.93;0.98;;;;;;;12.66;100.00;99172.38;4925949;29;20059;-87
2022/10/31 11:31:59;;;;;;;4.43;0.73;;;;;;;12.67;100.00;99171.34;4934178;29;20036;-90
2022/10/31 11:34:37;;;;;;;5.55;1.10;;;;;;;12.68;100.00;99165.03;4900971;29;20476;-88
2022/10/31 11:37:21;;;;;;;2.92;0.93;;;;;;;12.67;100.00;99158.09;4917666;29;20036;-87
2022/10/31 11:40:20;;;;;;;6.53;1.15;;;;;;;12.63;100.00;99143.56;4929880;29;20044;-88
2022/10/31 11:42:59;;;;;;;6.10;1.08;;;;;;;12.58;100.00;99136.19;4937733;28;20569;-89
2022/10/31 11:45:53;;;;;;;5.70;0.70;;;;;;;12.54;100.00;99129.63;4931058;29;20473;-89
2022/10/31 11:48:24;;;;;;;5.60;0.95;;;;;;;12.53;100.00;99138.59;4949858;28;20050;-89
2022/10/31 11:51:00;;;;;;;7.50;0.95;;;;;;;12.49;100.00;99139.97;4947119;28;20036;-90
2022/10/31 11:53:32;;;;;;;3.40;0.65;;;;;;;12.41;100.00;99138.28;4903831;29;20488;-89
2022/10/31 11:56:15;;;;;;;5.97;0.95;;;;;;;12.47;100.00;99142.81;4932623;29;20039;-89
2022/10/31 11:59:01;;;;;;;8.77;0.82;;;;;;;12.42;100.00;99137.28;4915741;29;20088;-89
2022/10/31 12:01:47;;;;;;;6.78;0.57;;;;;;;12.41;100.00;99148.88;4911375;29;20540;-88
2022/10/31 12:04:17;;;;;;;5.55;0.70;;;;;;;12.43;100.00;99140.72;4933862;29;20043;-89
2022/10/31 12:06:49;;;;;;;3.65;0.60;;;;;;;12.39;100.00;99140.31;4916679;29;20043;-88
2022/10/31 12:09:52;;;;;;;4.95;0.60;;;;;;;12.42;100.00;99137.28;4943515;28;20058;-89